sensor_id;sensor_type;location;lat;lon;timestamp;P1;durP1;ratioP1;P2;durP2;ratioP2
11173;SDS011;5643;50.856;12.088;2023-06-22T00:05:46;6.50;;;6.00;;
11173;SDS011;5643;50.856;12.088;2023-06-22T00:11:44;5.93;;;5.43;;
11173;SDS011;5643;50.856;12.088;2023-06-22T00:14:21;5.77;;;5.27;;
11173;SDS011;5643;50.856;12.088;2023-06-22T00:20:02;5.77;;;5.27;;
11173;SDS011;5643;50.856;12.088;2023-06-22T00:23:13;5.43;;;5.07;;
11173;SDS011;5643;50.856;12.088;2023-06-22T00:25:48;5.70;;;5.20;;
11173;SDS011;5643;50.856;12.088;2023-06-22T00:29:35;5.90;;;5.50;;
11173;SDS011;5643;50.856;12.088;2023-06-22T00:50:58;5.20;;;4.80;;
11173;SDS011;5643;50.856;12.088;2023-06-22T00:54:04;5.30;;;4.90;;
11173;SDS011;5643;50.856;12.088;2023-06-22T01:00:23;6.10;;;5.53;;
11173;SDS011;5643;50.856;12.088;2023-06-22T01:02:53;5.67;;;5.17;;
11173;SDS011;5643;50.856;12.088;2023-06-22T01:05:35;5.90;;;5.40;;
11173;SDS011;5643;50.856;12.088;2023-06-22T01:08:29;5.60;;;5.30;;
11173;SDS011;5643;50.856;12.088;2023-06-22T01:11:18;5.27;;;4.97;;
11173;SDS011;5643;50.856;12.088;2023-06-22T01:14:18;5.30;;;4.90;;
11173;SDS011;5643;50.856;12.088;2023-06-22T01:17:39;6.07;;;5.57;;
11173;SDS011;5643;50.856;12.088;2023-06-22T01:20:14;6.07;;;5.67;;
11173;SDS011;5643;50.856;12.088;2023-06-22T01:23:04;6.33;;;5.83;;
11173;SDS011;5643;50.856;12.088;2023-06-22T01:29:46;6.73;;;6.17;;
11173;SDS011;5643;50.856;12.088;2023-06-22T01:39:06;7.80;;;6.60;;
11173;SDS011;5643;50.856;12.088;2023-06-22T01:42:11;6.33;;;5.80;;
11173;SDS011;5643;50.856;12.088;2023-06-22T01:48:13;6.43;;;5.60;;
11173;SDS011;5643;50.856;12.088;2023-06-22T01:57:49;6.27;;;5.77;;
11173;SDS011;5643;50.856;12.088;2023-06-22T02:00:23;6.70;;;6.10;;
11173;SDS011;5643;50.856;12.088;2023-06-22T02:12:36;6.87;;;6.17;;
11173;SDS011;5643;50.856;12.088;2023-06-22T02:15:58;6.47;;;5.97;;
11173;SDS011;5643;50.856;12.088;2023-06-22T02:24:50;6.20;;;5.57;;
11173;SDS011;5643;50.856;12.088;2023-06-22T02:30:46;6.30;;;5.70;;
11173;SDS011;5643;50.856;12.088;2023-06-22T02:33:23;5.73;;;5.23;;
11173;SDS011;5643;50.856;12.088;2023-06-22T02:48:01;9.77;;;6.53;;
11173;SDS011;5643;50.856;12.088;2023-06-22T02:54:18;6.33;;;5.73;;
11173;SDS011;5643;50.856;12.088;2023-06-22T03:07:16;6.33;;;5.83;;
11173;SDS011;5643;50.856;12.088;2023-06-22T03:09:51;6.97;;;5.70;;
11173;SDS011;5643;50.856;12.088;2023-06-22T03:12:19;6.40;;;5.83;;
11173;SDS011;5643;50.856;12.088;2023-06-22T03:14:47;7.10;;;6.50;;
11173;SDS011;5643;50.856;12.088;2023-06-22T03:17:21;6.73;;;6.23;;
11173;SDS011;5643;50.856;12.088;2023-06-22T03:19:48;6.90;;;6.30;;
11173;SDS011;5643;50.856;12.088;2023-06-22T03:22:31;6.17;;;5.67;;
11173;SDS011;5643;50.856;12.088;2023-06-22T03:25:06;5.80;;;5.30;;
11173;SDS011;5643;50.856;12.088;2023-06-22T03:28:18;6.20;;;5.70;;
11173;SDS011;5643;50.856;12.088;2023-06-22T03:30:46;6.50;;;5.90;;
11173;SDS011;5643;50.856;12.088;2023-06-22T03:33:14;7.07;;;6.20;;
11173;SDS011;5643;50.856;12.088;2023-06-22T03:35:42;6.47;;;5.77;;
11173;SDS011;5643;50.856;12.088;2023-06-22T03:38:11;6.97;;;6.37;;
11173;SDS011;5643;50.856;12.088;2023-06-22T03:40:43;5.93;;;5.43;;
11173;SDS011;5643;50.856;12.088;2023-06-22T03:46:42;6.77;;;6.17;;
11173;SDS011;5643;50.856;12.088;2023-06-22T03:49:10;6.83;;;6.13;;
11173;SDS011;5643;50.856;12.088;2023-06-22T03:51:37;7.40;;;6.70;;
11173;SDS011;5643;50.856;12.088;2023-06-22T03:54:06;7.93;;;7.23;;
11173;SDS011;5643;50.856;12.088;2023-06-22T03:56:34;7.17;;;6.47;;
11173;SDS011;5643;50.856;12.088;2023-06-22T03:59:03;6.80;;;6.20;;
11173;SDS011;5643;50.856;12.088;2023-06-22T04:01:42;6.50;;;5.97;;
11173;SDS011;5643;50.856;12.088;2023-06-22T04:07:01;6.67;;;6.07;;
11173;SDS011;5643;50.856;12.088;2023-06-22T04:09:31;7.03;;;6.43;;
11173;SDS011;5643;50.856;12.088;2023-06-22T04:12:02;6.93;;;6.33;;
11173;SDS011;5643;50.856;12.088;2023-06-22T04:14:31;7.73;;;7.03;;
11173;SDS011;5643;50.856;12.088;2023-06-22T04:17:01;7.20;;;6.60;;
11173;SDS011;5643;50.856;12.088;2023-06-22T04:22:58;7.13;;;6.53;;
11173;SDS011;5643;50.856;12.088;2023-06-22T04:25:29;7.00;;;6.50;;
11173;SDS011;5643;50.856;12.088;2023-06-22T04:27:57;6.43;;;5.83;;
11173;SDS011;5643;50.856;12.088;2023-06-22T04:30:29;5.87;;;5.47;;
11173;SDS011;5643;50.856;12.088;2023-06-22T04:32:58;5.80;;;5.40;;
11173;SDS011;5643;50.856;12.088;2023-06-22T04:35:38;5.80;;;5.40;;
11173;SDS011;5643;50.856;12.088;2023-06-22T04:38:08;6.93;;;6.33;;
11173;SDS011;5643;50.856;12.088;2023-06-22T04:40:39;7.37;;;6.77;;
11173;SDS011;5643;50.856;12.088;2023-06-22T04:43:11;7.10;;;6.60;;
11173;SDS011;5643;50.856;12.088;2023-06-22T04:45:39;6.60;;;6.10;;
11173;SDS011;5643;50.856;12.088;2023-06-22T04:48:06;6.93;;;6.43;;
11173;SDS011;5643;50.856;12.088;2023-06-22T04:50:36;7.63;;;7.03;;
11173;SDS011;5643;50.856;12.088;2023-06-22T05:06:16;10.43;;;9.50;;
11173;SDS011;5643;50.856;12.088;2023-06-22T05:08:45;10.43;;;9.53;;
11173;SDS011;5643;50.856;12.088;2023-06-22T05:11:13;8.07;;;7.37;;
11173;SDS011;5643;50.856;12.088;2023-06-22T05:17:09;10.20;;;9.20;;
11173;SDS011;5643;50.856;12.088;2023-06-22T05:19:42;10.47;;;9.47;;
11173;SDS011;5643;50.856;12.088;2023-06-22T05:22:49;10.13;;;9.30;;
11173;SDS011;5643;50.856;12.088;2023-06-22T05:28:27;10.33;;;9.33;;
11173;SDS011;5643;50.856;12.088;2023-06-22T05:34:38;6.93;;;6.33;;
11173;SDS011;5643;50.856;12.088;2023-06-22T05:41:11;6.17;;;5.57;;
11173;SDS011;5643;50.856;12.088;2023-06-22T05:43:49;7.07;;;6.57;;
11173;SDS011;5643;50.856;12.088;2023-06-22T05:46:29;6.87;;;6.27;;
11173;SDS011;5643;50.856;12.088;2023-06-22T05:54:21;7.00;;;6.50;;
11173;SDS011;5643;50.856;12.088;2023-06-22T06:00:47;7.67;;;7.07;;
11173;SDS011;5643;50.856;12.088;2023-06-22T06:10:12;10.43;;;9.53;;
11173;SDS011;5643;50.856;12.088;2023-06-22T06:16:29;9.27;;;8.57;;
11173;SDS011;5643;50.856;12.088;2023-06-22T06:18:58;8.77;;;8.07;;
11173;SDS011;5643;50.856;12.088;2023-06-22T06:21:27;9.52;;;8.77;;
11173;SDS011;5643;50.856;12.088;2023-06-22T06:23:57;7.90;;;7.30;;
11173;SDS011;5643;50.856;12.088;2023-06-22T06:30:31;9.00;;;8.20;;
11173;SDS011;5643;50.856;12.088;2023-06-22T06:35:49;8.05;;;7.35;;
11173;SDS011;5643;50.856;12.088;2023-06-22T06:41:44;7.93;;;7.32;;
11173;SDS011;5643;50.856;12.088;2023-06-22T06:47:07;8.60;;;7.80;;
11173;SDS011;5643;50.856;12.088;2023-06-22T06:53:06;8.43;;;7.72;;
11173;SDS011;5643;50.856;12.088;2023-06-22T06:59:03;6.93;;;6.43;;
11173;SDS011;5643;50.856;12.088;2023-06-22T07:01:34;7.43;;;6.82;;
11173;SDS011;5643;50.856;12.088;2023-06-22T07:04:02;7.28;;;6.68;;
11173;SDS011;5643;50.856;12.088;2023-06-22T07:06:35;7.22;;;6.53;;
11173;SDS011;5643;50.856;12.088;2023-06-22T07:09:05;6.50;;;5.97;;
11173;SDS011;5643;50.856;12.088;2023-06-22T07:11:43;6.03;;;5.53;;
11173;SDS011;5643;50.856;12.088;2023-06-22T07:14:23;5.35;;;4.95;;
11173;SDS011;5643;50.856;12.088;2023-06-22T07:22:57;6.43;;;5.82;;
11173;SDS011;5643;50.856;12.088;2023-06-22T07:25:30;6.50;;;5.90;;
11173;SDS011;5643;50.856;12.088;2023-06-22T07:28:50;5.70;;;5.10;;
11173;SDS011;5643;50.856;12.088;2023-06-22T07:31:38;5.22;;;4.82;;
11173;SDS011;5643;50.856;12.088;2023-06-22T07:34:07;6.60;;;5.95;;
11173;SDS011;5643;50.856;12.088;2023-06-22T07:36:36;6.05;;;5.65;;
11173;SDS011;5643;50.856;12.088;2023-06-22T07:42:00;5.07;;;4.68;;
11173;SDS011;5643;50.856;12.088;2023-06-22T07:44:32;5.53;;;5.03;;
11173;SDS011;5643;50.856;12.088;2023-06-22T07:47:04;6.25;;;5.75;;
11173;SDS011;5643;50.856;12.088;2023-06-22T07:49:37;4.10;;;3.80;;
11173;SDS011;5643;50.856;12.088;2023-06-22T07:52:05;4.88;;;4.47;;
11173;SDS011;5643;50.856;12.088;2023-06-22T07:54:52;4.07;;;3.78;;
11173;SDS011;5643;50.856;12.088;2023-06-22T08:05:44;5.45;;;5.05;;
11173;SDS011;5643;50.856;12.088;2023-06-22T08:08:18;5.10;;;4.60;;
11173;SDS011;5643;50.856;12.088;2023-06-22T08:11:29;4.88;;;4.57;;
11173;SDS011;5643;50.856;12.088;2023-06-22T08:14:00;4.32;;;4.03;;
11173;SDS011;5643;50.856;12.088;2023-06-22T08:20:09;4.60;;;4.22;;
11173;SDS011;5643;50.856;12.088;2023-06-22T08:22:39;3.53;;;3.33;;
11173;SDS011;5643;50.856;12.088;2023-06-22T08:25:08;4.40;;;4.10;;
11173;SDS011;5643;50.856;12.088;2023-06-22T08:30:49;4.80;;;4.40;;
11173;SDS011;5643;50.856;12.088;2023-06-22T08:37:27;4.78;;;4.38;;
11173;SDS011;5643;50.856;12.088;2023-06-22T08:39:59;5.10;;;4.70;;
11173;SDS011;5643;50.856;12.088;2023-06-22T08:42:36;5.15;;;4.80;;
11173;SDS011;5643;50.856;12.088;2023-06-22T08:45:06;5.60;;;5.20;;
11173;SDS011;5643;50.856;12.088;2023-06-22T08:47:37;5.22;;;4.82;;
11173;SDS011;5643;50.856;12.088;2023-06-22T08:50:12;5.15;;;4.82;;
11173;SDS011;5643;50.856;12.088;2023-06-22T08:52:42;4.28;;;3.97;;
11173;SDS011;5643;50.856;12.088;2023-06-22T08:55:13;5.95;;;5.43;;
11173;SDS011;5643;50.856;12.088;2023-06-22T09:00:45;6.10;;;5.60;;
11173;SDS011;5643;50.856;12.088;2023-06-22T09:03:14;5.03;;;4.72;;
11173;SDS011;5643;50.856;12.088;2023-06-22T09:05:43;4.55;;;4.15;;
11173;SDS011;5643;50.856;12.088;2023-06-22T09:08:14;4.05;;;3.85;;
11173;SDS011;5643;50.856;12.088;2023-06-22T09:14:08;6.30;;;5.80;;
11173;SDS011;5643;50.856;12.088;2023-06-22T09:22:42;4.90;;;4.50;;
11173;SDS011;5643;50.856;12.088;2023-06-22T09:25:10;5.22;;;4.93;;
11173;SDS011;5643;50.856;12.088;2023-06-22T09:27:43;4.60;;;4.28;;
11173;SDS011;5643;50.856;12.088;2023-06-22T09:34:02;5.70;;;5.30;;
11173;SDS011;5643;50.856;12.088;2023-06-22T09:36:33;5.97;;;5.50;;
11173;SDS011;5643;50.856;12.088;2023-06-22T09:39:07;5.18;;;4.78;;
11173;SDS011;5643;50.856;12.088;2023-06-22T09:45:03;5.30;;;5.00;;
11173;SDS011;5643;50.856;12.088;2023-06-22T09:57:08;5.57;;;5.18;;
11173;SDS011;5643;50.856;12.088;2023-06-22T09:59:56;5.15;;;4.70;;
11173;SDS011;5643;50.856;12.088;2023-06-22T10:02:38;4.85;;;4.55;;
11173;SDS011;5643;50.856;12.088;2023-06-22T10:08:38;3.88;;;3.67;;
11173;SDS011;5643;50.856;12.088;2023-06-22T10:14:42;5.05;;;4.65;;
11173;SDS011;5643;50.856;12.088;2023-06-22T10:17:22;4.80;;;4.40;;
11173;SDS011;5643;50.856;12.088;2023-06-22T10:19:59;4.82;;;4.53;;
11173;SDS011;5643;50.856;12.088;2023-06-22T10:22:38;5.25;;;4.70;;
11173;SDS011;5643;50.856;12.088;2023-06-22T10:25:19;5.70;;;5.30;;
11173;SDS011;5643;50.856;12.088;2023-06-22T10:27:48;4.72;;;4.43;;
11173;SDS011;5643;50.856;12.088;2023-06-22T10:30:17;4.60;;;4.30;;
11173;SDS011;5643;50.856;12.088;2023-06-22T10:32:46;5.00;;;4.60;;
11173;SDS011;5643;50.856;12.088;2023-06-22T10:38:11;4.78;;;4.47;;
11173;SDS011;5643;50.856;12.088;2023-06-22T10:40:41;5.30;;;4.90;;
11173;SDS011;5643;50.856;12.088;2023-06-22T10:43:28;4.72;;;4.43;;
11173;SDS011;5643;50.856;12.088;2023-06-22T10:45:58;5.18;;;4.88;;
11173;SDS011;5643;50.856;12.088;2023-06-22T10:48:32;4.15;;;3.85;;
11173;SDS011;5643;50.856;12.088;2023-06-22T10:51:11;4.78;;;4.38;;
11173;SDS011;5643;50.856;12.088;2023-06-22T10:53:54;3.83;;;3.63;;
11173;SDS011;5643;50.856;12.088;2023-06-22T10:59:17;5.75;;;5.35;;
11173;SDS011;5643;50.856;12.088;2023-06-22T11:05:14;4.38;;;4.07;;
11173;SDS011;5643;50.856;12.088;2023-06-22T11:10:23;4.70;;;4.40;;
11173;SDS011;5643;50.856;12.088;2023-06-22T11:13:08;4.63;;;4.32;;
11173;SDS011;5643;50.856;12.088;2023-06-22T11:15:42;4.70;;;4.40;;
11173;SDS011;5643;50.856;12.088;2023-06-22T11:18:38;5.20;;;4.80;;
11173;SDS011;5643;50.856;12.088;2023-06-22T11:21:29;4.50;;;4.20;;
11173;SDS011;5643;50.856;12.088;2023-06-22T11:29:53;5.07;;;4.78;;
11173;SDS011;5643;50.856;12.088;2023-06-22T11:35:50;5.35;;;4.90;;
11173;SDS011;5643;50.856;12.088;2023-06-22T11:55:24;3.80;;;3.60;;
11173;SDS011;5643;50.856;12.088;2023-06-22T11:58:10;5.10;;;4.80;;
11173;SDS011;5643;50.856;12.088;2023-06-22T12:03:22;5.28;;;4.85;;
11173;SDS011;5643;50.856;12.088;2023-06-22T12:11:42;4.10;;;3.80;;
11173;SDS011;5643;50.856;12.088;2023-06-22T12:14:43;4.60;;;4.30;;
11173;SDS011;5643;50.856;12.088;2023-06-22T12:17:36;4.43;;;4.13;;
11173;SDS011;5643;50.856;12.088;2023-06-22T12:23:17;4.43;;;4.13;;
11173;SDS011;5643;50.856;12.088;2023-06-22T12:34:28;4.88;;;4.55;;
11173;SDS011;5643;50.856;12.088;2023-06-22T12:46:14;5.10;;;4.70;;
11173;SDS011;5643;50.856;12.088;2023-06-22T13:11:02;4.32;;;4.07;;
11173;SDS011;5643;50.856;12.088;2023-06-22T13:14:12;4.50;;;4.20;;
11173;SDS011;5643;50.856;12.088;2023-06-22T13:16:42;4.20;;;3.90;;
11173;SDS011;5643;50.856;12.088;2023-06-22T13:19:11;4.00;;;3.75;;
11173;SDS011;5643;50.856;12.088;2023-06-22T13:21:51;4.70;;;4.40;;
11173;SDS011;5643;50.856;12.088;2023-06-22T13:24:20;5.25;;;4.85;;
11173;SDS011;5643;50.856;12.088;2023-06-22T13:29:54;5.93;;;5.50;;
11173;SDS011;5643;50.856;12.088;2023-06-22T13:35:53;4.70;;;4.40;;
11173;SDS011;5643;50.856;12.088;2023-06-22T13:42:15;4.70;;;4.40;;
11173;SDS011;5643;50.856;12.088;2023-06-22T13:54:49;4.68;;;4.38;;
11173;SDS011;5643;50.856;12.088;2023-06-22T14:06:58;4.78;;;4.47;;
11173;SDS011;5643;50.856;12.088;2023-06-22T14:16:29;5.72;;;5.30;;
11173;SDS011;5643;50.856;12.088;2023-06-22T14:19:11;5.70;;;5.20;;
11173;SDS011;5643;50.856;12.088;2023-06-22T14:24:45;5.57;;;5.18;;
11173;SDS011;5643;50.856;12.088;2023-06-22T14:27:52;5.13;;;4.72;;
11173;SDS011;5643;50.856;12.088;2023-06-22T14:36:39;5.22;;;4.82;;
11173;SDS011;5643;50.856;12.088;2023-06-22T14:39:10;5.38;;;4.90;;
11173;SDS011;5643;50.856;12.088;2023-06-22T14:42:04;5.28;;;4.82;;
11173;SDS011;5643;50.856;12.088;2023-06-22T14:44:41;4.47;;;4.18;;
11173;SDS011;5643;50.856;12.088;2023-06-22T14:50:38;5.10;;;4.70;;
11173;SDS011;5643;50.856;12.088;2023-06-22T15:01:44;5.35;;;4.95;;
11173;SDS011;5643;50.856;12.088;2023-06-22T15:04:12;5.22;;;4.72;;
11173;SDS011;5643;50.856;12.088;2023-06-22T15:06:44;5.05;;;4.65;;
11173;SDS011;5643;50.856;12.088;2023-06-22T15:09:13;5.57;;;5.18;;
11173;SDS011;5643;50.856;12.088;2023-06-22T15:12:06;5.90;;;5.50;;
11173;SDS011;5643;50.856;12.088;2023-06-22T15:15:00;6.10;;;5.50;;
11173;SDS011;5643;50.856;12.088;2023-06-22T15:17:33;4.38;;;3.97;;
11173;SDS011;5643;50.856;12.088;2023-06-22T15:20:14;4.13;;;3.83;;
11173;SDS011;5643;50.856;12.088;2023-06-22T15:23:30;4.75;;;4.40;;
11173;SDS011;5643;50.856;12.088;2023-06-22T15:26:20;4.32;;;4.03;;
11173;SDS011;5643;50.856;12.088;2023-06-22T15:32:56;6.22;;;5.72;;
11173;SDS011;5643;50.856;12.088;2023-06-22T15:35:35;5.70;;;5.18;;
11173;SDS011;5643;50.856;12.088;2023-06-22T15:41:22;5.97;;;5.55;;
11173;SDS011;5643;50.856;12.088;2023-06-22T15:43:54;5.60;;;5.20;;
11173;SDS011;5643;50.856;12.088;2023-06-22T15:49:58;6.53;;;6.03;;
11173;SDS011;5643;50.856;12.088;2023-06-22T16:02:11;6.57;;;6.03;;
11173;SDS011;5643;50.856;12.088;2023-06-22T16:04:39;5.90;;;5.50;;
11173;SDS011;5643;50.856;12.088;2023-06-22T16:07:10;5.00;;;4.60;;
11173;SDS011;5643;50.856;12.088;2023-06-22T16:09:39;5.00;;;4.63;;
11173;SDS011;5643;50.856;12.088;2023-06-22T16:12:09;5.60;;;5.20;;
11173;SDS011;5643;50.856;12.088;2023-06-22T16:14:38;5.00;;;4.60;;
11173;SDS011;5643;50.856;12.088;2023-06-22T16:17:13;5.10;;;4.80;;
11173;SDS011;5643;50.856;12.088;2023-06-22T16:19:51;6.45;;;5.95;;
11173;SDS011;5643;50.856;12.088;2023-06-22T16:22:29;6.10;;;5.60;;
11173;SDS011;5643;50.856;12.088;2023-06-22T16:24:59;5.22;;;4.82;;
11173;SDS011;5643;50.856;12.088;2023-06-22T16:27:31;4.40;;;4.10;;
11173;SDS011;5643;50.856;12.088;2023-06-22T16:30:00;5.47;;;5.07;;
11173;SDS011;5643;50.856;12.088;2023-06-22T16:36:04;4.05;;;3.75;;
11173;SDS011;5643;50.856;12.088;2023-06-22T16:42:02;5.28;;;4.90;;
11173;SDS011;5643;50.856;12.088;2023-06-22T16:47:59;5.13;;;4.22;;
11173;SDS011;5643;50.856;12.088;2023-06-22T16:53:37;4.75;;;4.45;;
11173;SDS011;5643;50.856;12.088;2023-06-22T16:56:20;4.47;;;4.18;;
11173;SDS011;5643;50.856;12.088;2023-06-22T16:58:55;3.95;;;3.65;;
11173;SDS011;5643;50.856;12.088;2023-06-22T17:04:32;4.05;;;3.72;;
11173;SDS011;5643;50.856;12.088;2023-06-22T17:10:00;3.88;;;3.65;;
11173;SDS011;5643;50.856;12.088;2023-06-22T17:15:33;3.60;;;3.35;;
11173;SDS011;5643;50.856;12.088;2023-06-22T17:18:02;3.25;;;3.05;;
11173;SDS011;5643;50.856;12.088;2023-06-22T17:20:32;3.80;;;3.50;;
11173;SDS011;5643;50.856;12.088;2023-06-22T17:23:00;3.35;;;3.15;;
11173;SDS011;5643;50.856;12.088;2023-06-22T17:26:06;4.13;;;3.83;;
11173;SDS011;5643;50.856;12.088;2023-06-22T17:28:46;4.55;;;4.25;;
11173;SDS011;5643;50.856;12.088;2023-06-22T17:34:44;4.45;;;4.10;;
11173;SDS011;5643;50.856;12.088;2023-06-22T17:37:12;3.80;;;3.55;;
11173;SDS011;5643;50.856;12.088;2023-06-22T17:39:39;4.13;;;3.83;;
11173;SDS011;5643;50.856;12.088;2023-06-22T17:42:10;3.78;;;3.58;;
11173;SDS011;5643;50.856;12.088;2023-06-22T17:44:38;3.88;;;3.65;;
11173;SDS011;5643;50.856;12.088;2023-06-22T17:47:09;4.22;;;3.92;;
11173;SDS011;5643;50.856;12.088;2023-06-22T17:49:47;3.72;;;3.45;;
11173;SDS011;5643;50.856;12.088;2023-06-22T17:52:40;3.60;;;3.30;;
11173;SDS011;5643;50.856;12.088;2023-06-22T17:55:08;4.90;;;4.50;;
11173;SDS011;5643;50.856;12.088;2023-06-22T17:57:38;5.07;;;4.68;;
11173;SDS011;5643;50.856;12.088;2023-06-22T18:00:09;4.88;;;4.47;;
11173;SDS011;5643;50.856;12.088;2023-06-22T18:02:49;5.07;;;4.68;;
11173;SDS011;5643;50.856;12.088;2023-06-22T18:05:31;5.13;;;4.72;;
11173;SDS011;5643;50.856;12.088;2023-06-22T18:08:02;4.18;;;3.80;;
11173;SDS011;5643;50.856;12.088;2023-06-22T18:10:45;4.57;;;4.28;;
11173;SDS011;5643;50.856;12.088;2023-06-22T18:13:17;4.60;;;4.20;;
11173;SDS011;5643;50.856;12.088;2023-06-22T18:15:46;3.70;;;3.50;;
11173;SDS011;5643;50.856;12.088;2023-06-22T18:18:15;4.38;;;3.97;;
11173;SDS011;5643;50.856;12.088;2023-06-22T18:24:17;4.90;;;4.55;;
11173;SDS011;5643;50.856;12.088;2023-06-22T18:30:19;5.13;;;4.72;;
11173;SDS011;5643;50.856;12.088;2023-06-22T18:32:49;4.35;;;4.05;;
11173;SDS011;5643;50.856;12.088;2023-06-22T18:35:17;4.40;;;4.10;;
11173;SDS011;5643;50.856;12.088;2023-06-22T18:37:46;3.70;;;3.50;;
11173;SDS011;5643;50.856;12.088;2023-06-22T18:40:54;5.10;;;4.60;;
11173;SDS011;5643;50.856;12.088;2023-06-22T18:43:25;4.25;;;3.95;;
11173;SDS011;5643;50.856;12.088;2023-06-22T18:45:53;5.40;;;4.90;;
11173;SDS011;5643;50.856;12.088;2023-06-22T18:52:17;4.10;;;3.80;;
11173;SDS011;5643;50.856;12.088;2023-06-22T18:55:03;4.80;;;4.40;;
11173;SDS011;5643;50.856;12.088;2023-06-22T19:01:22;5.53;;;5.03;;
11173;SDS011;5643;50.856;12.088;2023-06-22T19:06:55;6.53;;;6.03;;
11173;SDS011;5643;50.856;12.088;2023-06-22T19:12:27;5.90;;;5.35;;
11173;SDS011;5643;50.856;12.088;2023-06-22T19:15:09;5.40;;;4.90;;
11173;SDS011;5643;50.856;12.088;2023-06-22T19:17:42;4.40;;;4.00;;
11173;SDS011;5643;50.856;12.088;2023-06-22T19:20:11;4.82;;;4.20;;
11173;SDS011;5643;50.856;12.088;2023-06-22T19:23:23;3.70;;;3.20;;
11173;SDS011;5643;50.856;12.088;2023-06-22T19:25:52;3.60;;;3.30;;
11173;SDS011;5643;50.856;12.088;2023-06-22T19:28:29;4.10;;;3.70;;
11173;SDS011;5643;50.856;12.088;2023-06-22T19:31:01;4.05;;;3.70;;
11173;SDS011;5643;50.856;12.088;2023-06-22T19:33:30;4.10;;;3.70;;
11173;SDS011;5643;50.856;12.088;2023-06-22T19:36:03;3.88;;;3.58;;
11173;SDS011;5643;50.856;12.088;2023-06-22T19:38:33;3.25;;;3.05;;
11173;SDS011;5643;50.856;12.088;2023-06-22T19:41:14;3.70;;;3.40;;
11173;SDS011;5643;50.856;12.088;2023-06-22T19:43:41;3.58;;;3.28;;
11173;SDS011;5643;50.856;12.088;2023-06-22T19:46:09;3.90;;;3.60;;
11173;SDS011;5643;50.856;12.088;2023-06-22T19:48:39;3.90;;;3.35;;
11173;SDS011;5643;50.856;12.088;2023-06-22T19:51:12;3.60;;;3.30;;
11173;SDS011;5643;50.856;12.088;2023-06-22T19:53:42;3.67;;;3.22;;
11173;SDS011;5643;50.856;12.088;2023-06-22T19:56:43;3.70;;;3.38;;
11173;SDS011;5643;50.856;12.088;2023-06-22T19:59:11;4.65;;;3.00;;
11173;SDS011;5643;50.856;12.088;2023-06-22T20:01:41;3.40;;;3.10;;
11173;SDS011;5643;50.856;12.088;2023-06-22T20:04:22;4.80;;;3.38;;
11173;SDS011;5643;50.856;12.088;2023-06-22T20:07:09;4.00;;;3.63;;
11173;SDS011;5643;50.856;12.088;2023-06-22T20:12:32;3.10;;;2.90;;
11173;SDS011;5643;50.856;12.088;2023-06-22T20:15:20;4.20;;;3.60;;
11173;SDS011;5643;50.856;12.088;2023-06-22T20:17:55;4.55;;;3.65;;
11173;SDS011;5643;50.856;12.088;2023-06-22T20:20:24;5.63;;;3.97;;
11173;SDS011;5643;50.856;12.088;2023-06-22T20:22:54;5.22;;;4.65;;
11173;SDS011;5643;50.856;12.088;2023-06-22T20:25:25;4.20;;;3.80;;
11173;SDS011;5643;50.856;12.088;2023-06-22T20:27:54;4.25;;;3.67;;
11173;SDS011;5643;50.856;12.088;2023-06-22T20:30:22;4.45;;;4.00;;
11173;SDS011;5643;50.856;12.088;2023-06-22T20:32:56;3.42;;;2.53;;
11173;SDS011;5643;50.856;12.088;2023-06-22T20:35:32;4.32;;;2.38;;
11173;SDS011;5643;50.856;12.088;2023-06-22T20:38:09;4.63;;;2.15;;
11173;SDS011;5643;50.856;12.088;2023-06-22T20:40:42;2.60;;;2.10;;
11173;SDS011;5643;50.856;12.088;2023-06-22T20:43:13;4.90;;;2.25;;
11173;SDS011;5643;50.856;12.088;2023-06-22T20:45:44;4.43;;;2.05;;
11173;SDS011;5643;50.856;12.088;2023-06-22T20:48:14;5.68;;;2.72;;
11173;SDS011;5643;50.856;12.088;2023-06-22T20:50:43;4.55;;;2.97;;
11173;SDS011;5643;50.856;12.088;2023-06-22T20:53:30;6.07;;;2.75;;
11173;SDS011;5643;50.856;12.088;2023-06-22T20:56:02;4.03;;;2.55;;
11173;SDS011;5643;50.856;12.088;2023-06-22T20:58:32;4.55;;;2.58;;
11173;SDS011;5643;50.856;12.088;2023-06-22T21:01:07;3.40;;;2.60;;
11173;SDS011;5643;50.856;12.088;2023-06-22T21:03:36;5.25;;;2.40;;
11173;SDS011;5643;50.856;12.088;2023-06-22T21:06:05;4.93;;;2.65;;
11173;SDS011;5643;50.856;12.088;2023-06-22T21:08:41;4.32;;;3.00;;
11173;SDS011;5643;50.856;12.088;2023-06-22T21:11:31;4.05;;;2.45;;
11173;SDS011;5643;50.856;12.088;2023-06-22T21:14:19;4.05;;;2.38;;
11173;SDS011;5643;50.856;12.088;2023-06-22T21:16:52;4.55;;;2.40;;
11173;SDS011;5643;50.856;12.088;2023-06-22T21:19:24;3.78;;;2.58;;
11173;SDS011;5643;50.856;12.088;2023-06-22T21:21:56;5.00;;;3.25;;
11173;SDS011;5643;50.856;12.088;2023-06-22T21:24:30;5.25;;;3.20;;
11173;SDS011;5643;50.856;12.088;2023-06-22T21:27:00;3.03;;;2.72;;
11173;SDS011;5643;50.856;12.088;2023-06-22T21:29:32;5.97;;;3.13;;
11173;SDS011;5643;50.856;12.088;2023-06-22T21:32:00;3.63;;;2.72;;
11173;SDS011;5643;50.856;12.088;2023-06-22T21:34:31;4.35;;;3.60;;
11173;SDS011;5643;50.856;12.088;2023-06-22T21:36:59;5.28;;;3.40;;
11173;SDS011;5643;50.856;12.088;2023-06-22T21:39:27;4.80;;;3.13;;
11173;SDS011;5643;50.856;12.088;2023-06-22T21:41:54;6.45;;;3.60;;
11173;SDS011;5643;50.856;12.088;2023-06-22T21:44:22;7.32;;;4.05;;
11173;SDS011;5643;50.856;12.088;2023-06-22T21:46:50;6.63;;;4.03;;
11173;SDS011;5643;50.856;12.088;2023-06-22T21:49:17;6.90;;;4.53;;
11173;SDS011;5643;50.856;12.088;2023-06-22T21:51:44;6.60;;;4.00;;
11173;SDS011;5643;50.856;12.088;2023-06-22T21:54:18;8.85;;;4.75;;
11173;SDS011;5643;50.856;12.088;2023-06-22T21:56:48;6.22;;;4.50;;
11173;SDS011;5643;50.856;12.088;2023-06-22T21:59:15;6.75;;;4.40;;
11173;SDS011;5643;50.856;12.088;2023-06-22T22:01:48;8.57;;;5.00;;
11173;SDS011;5643;50.856;12.088;2023-06-22T22:04:18;7.13;;;4.32;;
11173;SDS011;5643;50.856;12.088;2023-06-22T22:06:48;5.78;;;3.70;;
11173;SDS011;5643;50.856;12.088;2023-06-22T22:09:18;6.28;;;3.80;;
11173;SDS011;5643;50.856;12.088;2023-06-22T22:11:45;6.50;;;3.40;;
11173;SDS011;5643;50.856;12.088;2023-06-22T22:14:14;6.18;;;4.10;;
11173;SDS011;5643;50.856;12.088;2023-06-22T22:16:48;4.30;;;3.83;;
11173;SDS011;5643;50.856;12.088;2023-06-22T22:19:16;5.70;;;4.13;;
11173;SDS011;5643;50.856;12.088;2023-06-22T22:21:46;5.28;;;4.00;;
11173;SDS011;5643;50.856;12.088;2023-06-22T22:24:21;6.93;;;4.45;;
11173;SDS011;5643;50.856;12.088;2023-06-22T22:26:56;7.50;;;4.30;;
11173;SDS011;5643;50.856;12.088;2023-06-22T22:29:25;5.95;;;3.60;;
11173;SDS011;5643;50.856;12.088;2023-06-22T22:31:54;3.80;;;3.38;;
11173;SDS011;5643;50.856;12.088;2023-06-22T22:34:21;3.53;;;3.33;;
11173;SDS011;5643;50.856;12.088;2023-06-22T22:36:55;3.35;;;3.00;;
11173;SDS011;5643;50.856;12.088;2023-06-22T22:39:35;3.80;;;3.00;;
11173;SDS011;5643;50.856;12.088;2023-06-22T22:42:09;3.77;;;3.20;;
11173;SDS011;5643;50.856;12.088;2023-06-22T22:44:37;3.17;;;2.97;;
11173;SDS011;5643;50.856;12.088;2023-06-22T22:47:04;5.30;;;3.97;;
11173;SDS011;5643;50.856;12.088;2023-06-22T22:49:33;4.53;;;3.40;;
11173;SDS011;5643;50.856;12.088;2023-06-22T22:52:00;3.72;;;3.30;;
11173;SDS011;5643;50.856;12.088;2023-06-22T22:54:30;4.35;;;3.85;;
11173;SDS011;5643;50.856;12.088;2023-06-22T22:57:02;6.18;;;3.85;;
11173;SDS011;5643;50.856;12.088;2023-06-22T22:59:33;7.77;;;4.20;;
11173;SDS011;5643;50.856;12.088;2023-06-22T23:02:00;12.07;;;4.50;;
11173;SDS011;5643;50.856;12.088;2023-06-22T23:04:27;6.50;;;3.80;;
11173;SDS011;5643;50.856;12.088;2023-06-22T23:06:57;5.78;;;3.92;;
11173;SDS011;5643;50.856;12.088;2023-06-22T23:09:29;6.07;;;3.53;;
11173;SDS011;5643;50.856;12.088;2023-06-22T23:12:01;4.70;;;3.40;;
11173;SDS011;5643;50.856;12.088;2023-06-22T23:14:38;4.00;;;3.40;;